createdAt,value
2022-10-24T00:01:54.335Z,8.40
2022-10-24T00:04:22.670Z,8.40
2022-10-24T00:06:51.021Z,8.35
2022-10-24T00:09:19.324Z,6.38
2022-10-24T00:11:48.933Z,7.68
2022-10-24T00:14:17.191Z,10.23
2022-10-24T00:16:45.579Z,7.43
2022-10-24T00:19:14.238Z,12.98
2022-10-24T00:21:42.669Z,9.98
2022-10-24T00:24:11.504Z,9.85
2022-10-24T00:26:41.793Z,8.63
2022-10-24T00:29:14.057Z,8.20
2022-10-24T00:31:42.446Z,7.88
2022-10-24T00:34:11.321Z,7.45
2022-10-24T00:36:39.796Z,8.48
2022-10-24T00:39:08.377Z,4.22
2022-10-24T00:41:41.900Z,8.13
2022-10-24T00:44:21.862Z,10.48
2022-10-24T00:46:55.247Z,5.95
2022-10-24T00:49:29.888Z,6.38
2022-10-24T00:52:03.089Z,5.82
2022-10-24T00:54:32.127Z,6.03
2022-10-24T00:57:05.968Z,4.05
2022-10-24T00:59:37.503Z,6.47
2022-10-24T01:02:05.935Z,8.50
2022-10-24T01:04:34.798Z,4.38
2022-10-24T01:07:20.489Z,3.80
2022-10-24T01:10:12.977Z,8.13
2022-10-24T01:12:53.226Z,6.40
2022-10-24T01:15:28.644Z,8.68
2022-10-24T01:18:03.949Z,9.07
2022-10-24T01:20:57.625Z,8.18
2022-10-24T01:23:58.449Z,13.65
2022-10-24T01:26:52.699Z,9.40
2022-10-24T01:29:32.985Z,11.07
2022-10-24T01:32:08.992Z,5.93
2022-10-24T01:34:44.287Z,8.68
2022-10-24T01:37:19.087Z,9.25
2022-10-24T01:39:51.032Z,8.50
2022-10-24T01:42:22.893Z,9.82
2022-10-24T01:44:56.693Z,10.93
2022-10-24T01:47:28.988Z,9.95
2022-10-24T01:50:03.686Z,11.73
2022-10-24T01:52:37.115Z,10.32
2022-10-24T01:55:07.013Z,6.80
2022-10-24T01:57:36.263Z,7.32
2022-10-24T02:00:08.103Z,7.68
2022-10-24T02:02:43.033Z,12.00
2022-10-24T02:05:15.933Z,7.18
2022-10-24T02:07:47.857Z,5.70
2022-10-24T02:10:20.194Z,9.55
2022-10-24T02:12:53.512Z,9.57
2022-10-24T02:15:27.083Z,6.65
2022-10-24T02:17:57.398Z,5.60
2022-10-24T02:20:30.889Z,7.82
2022-10-24T02:23:04.002Z,9.30
2022-10-24T02:25:37.310Z,8.07
2022-10-24T02:28:11.196Z,8.05
2022-10-24T02:30:46.145Z,6.90
2022-10-24T02:33:16.596Z,10.10
2022-10-24T02:35:46.941Z,7.13
2022-10-24T02:40:47.333Z,7.07
2022-10-24T02:43:17.249Z,7.07
2022-10-24T02:45:54.576Z,6.43
2022-10-24T02:48:28.491Z,8.80
2022-10-24T02:50:56.945Z,6.35
2022-10-24T02:53:26.642Z,7.97
2022-10-24T02:55:54.942Z,8.40
2022-10-24T02:58:23.724Z,7.30
2022-10-24T03:00:53.511Z,6.97
2022-10-24T03:03:22.462Z,10.05
2022-10-24T03:05:50.760Z,5.43
2022-10-24T03:08:19.446Z,6.70
2022-10-24T03:10:47.889Z,5.05
2022-10-24T03:13:16.364Z,4.15
2022-10-24T03:15:44.821Z,4.07
2022-10-24T03:18:14.880Z,3.53
2022-10-24T03:20:43.144Z,6.97
2022-10-24T03:23:11.905Z,6.25
2022-10-24T03:25:40.222Z,8.80
2022-10-24T03:28:09.054Z,8.13
2022-10-24T03:30:37.334Z,6.80
2022-10-24T03:33:06.014Z,6.55
2022-10-24T03:35:37.317Z,7.00
2022-10-24T03:38:08.135Z,5.55
2022-10-24T03:40:37.176Z,4.60
2022-10-24T03:43:05.668Z,6.20
2022-10-24T03:45:33.944Z,7.57
2022-10-24T03:48:02.212Z,7.03
2022-10-24T03:50:30.658Z,5.40
2022-10-24T03:53:00.570Z,6.53
2022-10-24T03:55:30.338Z,3.90
2022-10-24T03:57:58.677Z,6.07
2022-10-24T04:00:29.155Z,8.60
2022-10-24T04:05:26.197Z,7.30
2022-10-24T04:07:54.542Z,5.35
2022-10-24T04:10:24.763Z,6.47
2022-10-24T04:12:53.052Z,4.38
2022-10-24T04:15:21.646Z,4.03
2022-10-24T04:17:50.361Z,7.03
2022-10-24T04:20:20.464Z,4.30
2022-10-24T04:22:49.529Z,10.18
2022-10-24T04:25:18.988Z,5.38
2022-10-24T04:27:49.272Z,8.85
2022-10-24T04:30:17.769Z,6.40
2022-10-24T04:32:47.430Z,9.65
2022-10-24T04:35:15.981Z,5.33
2022-10-24T04:37:44.452Z,5.82
2022-10-24T04:40:13.098Z,6.43
2022-10-24T04:42:41.819Z,5.97
2022-10-24T04:45:12.438Z,7.90
2022-10-24T04:47:41.052Z,9.05
2022-10-24T04:50:10.435Z,9.43
2022-10-24T04:52:38.726Z,10.90
2022-10-24T04:55:08.024Z,7.07
2022-10-24T04:57:36.425Z,6.95
2022-10-24T05:00:06.139Z,9.93
2022-10-24T05:02:35.881Z,10.32
2022-10-24T05:05:05.134Z,12.48
2022-10-24T05:07:33.450Z,12.68
2022-10-24T05:10:02.144Z,9.38
2022-10-24T05:12:31.105Z,10.40
2022-10-24T05:15:00.435Z,12.27
2022-10-24T05:17:28.811Z,13.88
2022-10-24T05:19:58.480Z,9.52
2022-10-24T05:22:26.705Z,17.00
2022-10-24T05:24:55.488Z,13.75
2022-10-24T05:27:25.387Z,13.50
2022-10-24T05:29:54.998Z,9.50
2022-10-24T05:32:24.486Z,9.27
2022-10-24T05:34:53.048Z,8.70
2022-10-24T05:37:23.698Z,13.52
2022-10-24T05:39:52.415Z,8.52
2022-10-24T05:42:21.105Z,8.48
2022-10-24T05:44:49.411Z,11.82
2022-10-24T05:47:18.056Z,7.82
2022-10-24T05:49:46.554Z,7.68
2022-10-24T05:52:15.028Z,8.73
2022-10-24T05:54:55.333Z,10.88
2022-10-24T05:57:33.807Z,12.88
2022-10-24T06:00:02.132Z,12.63
2022-10-24T06:02:41.157Z,11.05
2022-10-24T06:05:11.147Z,12.15
2022-10-24T06:07:42.357Z,18.13
2022-10-24T06:10:13.878Z,9.57
2022-10-24T06:12:43.190Z,8.50
2022-10-24T06:15:13.383Z,9.38
2022-10-24T06:17:42.246Z,7.30
2022-10-24T06:20:11.676Z,11.38
2022-10-24T06:22:40.558Z,9.17
2022-10-24T06:25:09.493Z,7.35
2022-10-24T06:27:39.514Z,7.90
2022-10-24T06:30:10.158Z,11.68
2022-10-24T06:32:42.111Z,12.05
2022-10-24T06:35:14.763Z,6.60
2022-10-24T06:40:17.216Z,11.77
2022-10-24T06:42:47.952Z,7.78
2022-10-24T06:47:50.575Z,8.13
2022-10-24T06:50:22.092Z,9.95
2022-10-24T06:52:50.444Z,7.25
2022-10-24T06:55:18.849Z,7.65
2022-10-24T06:57:48.462Z,6.30
2022-10-24T07:00:18.643Z,7.05
2022-10-24T07:02:47.188Z,8.80
2022-10-24T07:05:16.068Z,5.80
2022-10-24T07:07:45.612Z,8.23
2022-10-24T07:10:15.749Z,6.95
2022-10-24T07:12:44.628Z,7.30
2022-10-24T07:15:15.217Z,10.55
2022-10-24T07:17:44.888Z,13.82
2022-10-24T07:20:14.640Z,8.75
2022-10-24T07:22:42.986Z,10.03
2022-10-24T07:25:11.676Z,8.05
2022-10-24T07:27:40.960Z,6.32
2022-10-24T07:30:10.754Z,9.25
2022-10-24T07:32:40.917Z,6.47
2022-10-24T07:35:12.163Z,9.63
2022-10-24T07:37:41.052Z,5.15
2022-10-24T07:40:10.769Z,7.57
2022-10-24T07:42:40.101Z,8.18
2022-10-24T07:45:09.634Z,4.75
2022-10-24T07:47:38.123Z,7.33
2022-10-24T07:50:09.142Z,4.57
2022-10-24T07:52:37.808Z,5.97
2022-10-24T07:55:07.001Z,6.95
2022-10-24T07:57:35.363Z,9.65
2022-10-24T08:00:03.762Z,6.70
2022-10-24T08:02:41.302Z,7.80
2022-10-24T08:05:11.635Z,6.47
2022-10-24T08:07:40.093Z,9.35
2022-10-24T08:10:10.385Z,11.20
2022-10-24T08:12:40.338Z,6.07
2022-10-24T08:15:09.532Z,8.60
2022-10-24T08:17:37.925Z,7.80
2022-10-24T08:20:08.234Z,6.30
2022-10-24T08:22:37.993Z,11.32
2022-10-24T08:25:09.984Z,7.18
2022-10-24T08:27:38.416Z,8.68
2022-10-24T08:30:09.631Z,5.22
2022-10-24T08:32:39.216Z,6.72
2022-10-24T08:35:08.918Z,8.90
2022-10-24T08:37:39.093Z,9.27
2022-10-24T08:40:13.264Z,7.20
2022-10-24T08:42:41.675Z,5.70
2022-10-24T08:45:15.173Z,7.95
2022-10-24T08:47:50.622Z,8.13
2022-10-24T08:50:25.002Z,7.72
2022-10-24T08:53:00.744Z,8.98
2022-10-24T08:55:50.327Z,6.80
2022-10-24T08:58:22.791Z,7.35
2022-10-24T09:00:54.413Z,6.50
2022-10-24T09:03:44.009Z,6.50
2022-10-24T09:06:19.694Z,9.15
2022-10-24T09:08:53.670Z,6.50
2022-10-24T09:11:29.666Z,7.63
2022-10-24T09:13:59.078Z,8.02
2022-10-24T09:16:28.220Z,12.63
2022-10-24T09:18:58.285Z,10.15
2022-10-24T09:21:27.589Z,8.93
2022-10-24T09:23:57.653Z,8.80
2022-10-24T09:26:29.958Z,7.32
2022-10-24T09:28:58.439Z,11.90
2022-10-24T09:31:28.513Z,10.25
2022-10-24T09:34:00.441Z,7.20
2022-10-24T09:36:31.811Z,7.28
2022-10-24T09:39:24.862Z,11.40
2022-10-24T09:41:53.215Z,14.45
2022-10-24T09:44:37.529Z,5.65
2022-10-24T09:47:10.451Z,9.13
2022-10-24T09:49:41.273Z,8.57
2022-10-24T09:52:19.982Z,9.93
2022-10-24T09:55:07.818Z,8.80
2022-10-24T09:57:41.026Z,8.52
2022-10-24T10:00:23.481Z,8.85
2022-10-24T10:03:03.916Z,6.03
2022-10-24T10:05:45.379Z,5.78
2022-10-24T10:08:20.304Z,5.55
2022-10-24T10:11:06.070Z,9.73
2022-10-24T10:13:49.761Z,8.73
2022-10-24T10:16:26.490Z,7.07
2022-10-24T10:19:03.998Z,9.45
2022-10-24T10:21:55.034Z,7.13
2022-10-24T10:24:29.238Z,7.05
2022-10-24T10:26:58.929Z,6.70
2022-10-24T10:29:29.194Z,5.05
2022-10-24T10:32:07.013Z,8.25
2022-10-24T10:34:40.943Z,7.95
2022-10-24T10:37:30.901Z,9.10
2022-10-24T10:40:21.748Z,7.05
2022-10-24T10:45:36.380Z,8.27
2022-10-24T10:48:19.093Z,5.32
2022-10-24T10:50:53.492Z,4.68
2022-10-24T10:53:33.027Z,5.80
2022-10-24T10:56:09.888Z,4.88
2022-10-24T10:58:46.964Z,5.20
2022-10-24T11:01:23.074Z,6.05
2022-10-24T11:03:59.547Z,8.57
2022-10-24T11:06:39.342Z,9.27
2022-10-24T11:09:29.617Z,6.20
2022-10-24T11:12:05.428Z,6.22
2022-10-24T11:14:37.930Z,8.75
2022-10-24T11:17:14.062Z,8.23
2022-10-24T11:19:50.878Z,6.90
2022-10-24T11:22:25.691Z,9.30
2022-10-24T11:25:00.785Z,5.70
2022-10-24T11:27:36.837Z,5.70
2022-10-24T11:30:15.263Z,5.60
2022-10-24T11:32:50.811Z,6.35
2022-10-24T11:35:29.090Z,9.55
2022-10-24T11:38:03.023Z,8.75
2022-10-24T11:40:32.088Z,6.30
2022-10-24T11:43:12.017Z,8.10
2022-10-24T11:45:47.978Z,9.65
2022-10-24T11:48:22.311Z,7.10
2022-10-24T11:50:55.370Z,6.43
2022-10-24T11:53:48.193Z,9.82
2022-10-24T11:56:27.112Z,9.68
2022-10-24T11:58:59.132Z,11.05
2022-10-24T12:02:16.277Z,7.22
2022-10-24T12:04:59.937Z,6.57
2022-10-24T12:08:06.013Z,7.43
2022-10-24T12:11:13.100Z,9.00
2022-10-24T12:14:14.333Z,9.35
2022-10-24T12:16:55.003Z,10.27
2022-10-24T12:21:55.764Z,4.15
2022-10-24T12:24:31.711Z,6.88
2022-10-24T12:27:02.768Z,5.97
2022-10-24T12:29:34.230Z,6.60
2022-10-24T12:32:29.753Z,7.53
2022-10-24T12:35:29.040Z,7.95
2022-10-24T12:37:50.438Z,7.45
2022-10-24T12:40:57.994Z,10.48
2022-10-24T12:43:33.984Z,7.47
2022-10-24T12:46:23.734Z,5.88
2022-10-24T12:49:19.055Z,20.17
2022-10-24T12:51:49.695Z,10.13
2022-10-24T12:54:19.514Z,6.38
2022-10-24T12:57:26.496Z,5.25
2022-10-24T12:59:57.927Z,5.60
2022-10-24T13:02:47.866Z,5.70
2022-10-24T13:05:34.396Z,4.05
2022-10-24T13:08:21.695Z,7.95
2022-10-24T13:11:01.729Z,6.10
2022-10-24T13:13:55.121Z,6.13
2022-10-24T13:16:34.958Z,6.82
2022-10-24T13:19:11.027Z,9.98
2022-10-24T13:21:47.810Z,7.97
2022-10-24T13:24:36.606Z,7.10
2022-10-24T13:27:28.813Z,7.07
2022-10-24T13:30:34.298Z,8.25
2022-10-24T13:33:41.486Z,11.38
2022-10-24T13:36:17.588Z,7.90
2022-10-24T13:38:51.185Z,7.85
2022-10-24T13:41:29.022Z,6.63
2022-10-24T13:44:04.205Z,6.57
2022-10-24T13:49:14.597Z,8.18
2022-10-24T13:51:47.542Z,7.05
2022-10-24T13:54:21.477Z,7.47
2022-10-24T13:56:51.261Z,6.43
2022-10-24T13:59:34.663Z,4.65
2022-10-24T14:02:06.453Z,7.85
2022-10-24T14:04:36.274Z,7.03
2022-10-24T14:07:07.551Z,7.82
2022-10-24T14:09:42.193Z,7.22
2022-10-24T14:12:20.527Z,5.10
2022-10-24T14:14:51.718Z,5.57
2022-10-24T14:17:23.782Z,8.30
2022-10-24T14:19:55.884Z,5.28
2022-10-24T14:22:27.975Z,3.80
2022-10-24T14:24:57.946Z,4.70
2022-10-24T14:27:27.884Z,3.67
2022-10-24T14:30:02.558Z,6.38
2022-10-24T14:32:32.795Z,5.35
2022-10-24T14:35:02.855Z,7.35
2022-10-24T14:37:37.565Z,7.00
2022-10-24T14:40:08.005Z,9.70
2022-10-24T14:42:39.683Z,6.32
2022-10-24T14:45:23.546Z,8.25
2022-10-24T14:47:53.657Z,8.38
2022-10-24T14:50:40.376Z,9.70
2022-10-24T14:53:23.882Z,9.18
2022-10-24T14:55:54.900Z,5.35
2022-10-24T14:58:27.447Z,5.45
2022-10-24T15:00:57.340Z,7.07
2022-10-24T15:03:26.688Z,5.77
2022-10-24T15:05:58.255Z,5.35
2022-10-24T15:08:35.366Z,5.72
2022-10-24T15:11:07.808Z,4.25
2022-10-24T15:13:48.175Z,7.90
2022-10-24T15:16:33.149Z,4.75
2022-10-24T15:19:04.077Z,4.75
2022-10-24T15:21:36.909Z,5.50
2022-10-24T15:24:06.017Z,5.20
2022-10-24T15:26:36.773Z,5.93
2022-10-24T15:29:23.337Z,6.93
2022-10-24T15:31:53.421Z,5.85
2022-10-24T15:34:23.652Z,3.37
2022-10-24T15:36:53.707Z,8.70
2022-10-24T15:39:24.352Z,3.30
2022-10-24T15:41:54.060Z,3.63
2022-10-24T15:44:26.647Z,6.57
2022-10-24T15:46:55.665Z,3.13
2022-10-24T15:49:24.275Z,4.95
2022-10-24T15:51:52.885Z,4.53
2022-10-24T15:54:23.439Z,2.08
2022-10-24T15:56:52.026Z,2.08
2022-10-24T15:59:20.826Z,3.33
2022-10-24T16:01:53.763Z,4.43
2022-10-24T16:04:24.054Z,2.22
2022-10-24T16:06:52.628Z,4.40
2022-10-24T16:09:23.893Z,2.03
2022-10-24T16:11:52.180Z,2.05
2022-10-24T16:14:22.906Z,4.35
2022-10-24T16:16:54.871Z,2.25
2022-10-24T16:19:24.168Z,1.70
2022-10-24T16:21:58.179Z,5.32
2022-10-24T16:24:27.779Z,2.92
2022-10-24T16:26:56.165Z,2.20
2022-10-24T16:29:25.046Z,3.10
2022-10-24T16:31:54.756Z,2.50
2022-10-24T16:34:24.517Z,2.53
2022-10-24T16:36:54.568Z,4.40
2022-10-24T16:39:24.279Z,2.25
2022-10-24T16:41:55.198Z,2.45
2022-10-24T16:44:24.104Z,2.45
2022-10-24T16:46:55.161Z,2.60
2022-10-24T16:49:24.431Z,3.28
2022-10-24T16:51:52.767Z,2.33
2022-10-24T16:54:22.744Z,2.30
2022-10-24T16:56:54.065Z,3.30
2022-10-24T16:59:22.845Z,3.05
2022-10-24T17:02:01.998Z,2.22
2022-10-24T17:04:33.884Z,3.65
2022-10-24T17:07:04.499Z,2.53
2022-10-24T17:09:33.085Z,2.92
2022-10-24T17:12:01.950Z,2.38
2022-10-24T17:14:30.396Z,2.50
2022-10-24T17:16:59.290Z,2.30
2022-10-24T17:19:28.077Z,3.13
2022-10-24T17:21:58.061Z,1.77
2022-10-24T17:24:27.624Z,2.70
2022-10-24T17:26:56.061Z,2.53
2022-10-24T17:29:27.623Z,4.80
2022-10-24T17:31:56.940Z,2.00
2022-10-24T17:34:26.512Z,4.47
2022-10-24T17:37:05.277Z,3.60
2022-10-24T17:39:41.746Z,2.75
2022-10-24T17:42:13.498Z,4.20
2022-10-24T17:44:42.501Z,1.75
2022-10-24T17:47:11.294Z,3.47
2022-10-24T17:49:40.700Z,2.67
2022-10-24T17:52:12.395Z,3.28
2022-10-24T17:54:45.768Z,2.75
2022-10-24T17:57:14.453Z,1.77
2022-10-24T17:59:43.239Z,3.80
2022-10-24T18:02:13.656Z,1.95
2022-10-24T18:04:45.110Z,3.88
2022-10-24T18:07:15.096Z,2.72
2022-10-24T18:09:43.931Z,4.25
2022-10-24T18:12:12.212Z,2.60
2022-10-24T18:14:40.535Z,3.38
2022-10-24T18:17:09.429Z,3.30
2022-10-24T18:19:37.822Z,2.20
2022-10-24T18:22:07.527Z,2.22
2022-10-24T18:24:41.401Z,3.85
2022-10-24T18:27:11.280Z,3.55
2022-10-24T18:32:15.992Z,2.60
2022-10-24T18:34:44.330Z,2.20
2022-10-24T18:37:13.392Z,3.20
2022-10-24T18:39:43.104Z,5.00
2022-10-24T18:42:25.412Z,5.35
2022-10-24T18:44:54.265Z,4.70
2022-10-24T18:47:25.714Z,6.10
2022-10-24T18:49:56.004Z,3.33
2022-10-24T18:52:41.637Z,3.92
2022-10-24T18:55:18.734Z,4.65
2022-10-24T18:57:48.891Z,5.75
2022-10-24T19:00:20.602Z,2.05
2022-10-24T19:02:58.994Z,2.38
2022-10-24T19:05:44.253Z,2.70
2022-10-24T19:08:15.349Z,3.63
2022-10-24T19:13:14.535Z,6.53
2022-10-24T19:15:46.196Z,4.13
2022-10-24T19:18:18.878Z,2.97
2022-10-24T19:20:47.158Z,3.83
2022-10-24T19:23:17.505Z,6.18
2022-10-24T19:25:47.161Z,3.63
2022-10-24T19:28:18.807Z,6.15
2022-10-24T19:30:47.828Z,2.00
2022-10-24T19:33:17.341Z,1.88
2022-10-24T19:35:47.693Z,1.77
2022-10-24T19:38:17.454Z,2.40
2022-10-24T19:40:47.745Z,2.50
2022-10-24T19:43:16.372Z,1.90
2022-10-24T19:45:50.069Z,5.30
2022-10-24T19:48:24.389Z,2.00
2022-10-24T19:50:53.295Z,3.28
2022-10-24T19:53:23.423Z,2.35
2022-10-24T19:55:53.585Z,1.90
2022-10-24T19:58:22.336Z,3.88
2022-10-24T20:00:50.890Z,1.65
2022-10-24T20:03:19.169Z,2.63
2022-10-24T20:05:48.284Z,4.85
2022-10-24T20:08:16.584Z,2.78
2022-10-24T20:10:53.577Z,1.73
2022-10-24T20:13:21.809Z,2.55
2022-10-24T20:15:54.944Z,2.50
2022-10-24T20:18:23.396Z,3.25
2022-10-24T20:20:54.366Z,2.35
2022-10-24T20:23:25.010Z,2.22
2022-10-24T20:26:02.225Z,2.03
2022-10-24T20:28:32.569Z,2.00
2022-10-24T20:31:00.924Z,2.00
2022-10-24T20:33:29.433Z,1.80
2022-10-24T20:36:00.209Z,2.25
2022-10-24T20:41:01.273Z,1.70
2022-10-24T20:43:31.332Z,2.33
2022-10-24T20:46:00.305Z,2.05
2022-10-24T20:48:29.007Z,4.95
2022-10-24T20:51:05.819Z,2.57
2022-10-24T20:53:34.300Z,4.00
2022-10-24T20:56:07.582Z,3.00
2022-10-24T20:58:41.414Z,2.33
2022-10-24T21:01:11.679Z,2.70
2022-10-24T21:03:40.839Z,2.17
2022-10-24T21:06:18.692Z,2.55
2022-10-24T21:08:49.058Z,2.25
2022-10-24T21:11:22.384Z,8.32
2022-10-24T21:13:54.567Z,2.00
2022-10-24T21:16:50.089Z,2.05
2022-10-24T21:19:27.990Z,3.70
2022-10-24T21:21:56.293Z,3.72
2022-10-24T21:24:24.901Z,1.80
2022-10-24T21:26:53.718Z,2.28
2022-10-24T21:29:38.848Z,3.63
2022-10-24T21:32:07.161Z,3.75
2022-10-24T21:34:36.414Z,2.53
2022-10-24T21:37:05.439Z,5.45
2022-10-24T21:39:34.012Z,4.75
2022-10-24T21:42:02.298Z,2.22
2022-10-24T21:44:32.099Z,2.45
2022-10-24T21:47:00.959Z,3.85
2022-10-24T21:49:29.173Z,2.17
2022-10-24T21:51:58.045Z,2.47
2022-10-24T21:54:27.020Z,2.45
2022-10-24T21:56:55.709Z,3.97
2022-10-24T21:59:24.016Z,3.05
2022-10-24T22:01:53.776Z,4.70
2022-10-24T22:04:22.383Z,2.85
2022-10-24T22:06:50.751Z,2.38
2022-10-24T22:09:20.773Z,4.05
2022-10-24T22:14:18.763Z,2.78
2022-10-24T22:16:47.308Z,2.15
2022-10-24T22:19:17.315Z,2.47
2022-10-24T22:21:47.338Z,2.53
2022-10-24T22:24:18.236Z,8.18
2022-10-24T22:26:47.099Z,3.47
2022-10-24T22:29:18.041Z,2.05
2022-10-24T22:31:47.351Z,2.50
2022-10-24T22:34:19.916Z,3.33
2022-10-24T22:37:05.256Z,3.40
2022-10-24T22:39:34.834Z,2.70
2022-10-24T22:42:03.556Z,2.42
2022-10-24T22:44:32.880Z,2.10
2022-10-24T22:47:17.607Z,2.25
2022-10-24T22:49:58.562Z,2.33
2022-10-24T22:52:28.020Z,4.30
2022-10-24T22:54:57.608Z,4.40
2022-10-24T22:57:26.397Z,2.00
2022-10-24T22:59:55.336Z,5.05
2022-10-24T23:02:33.184Z,4.30
2022-10-24T23:05:07.515Z,3.90
2022-10-24T23:07:47.195Z,7.15
2022-10-24T23:10:20.861Z,5.82
2022-10-24T23:12:50.438Z,4.22
2022-10-24T23:15:21.064Z,5.05
2022-10-24T23:17:50.715Z,3.63
2022-10-24T23:20:32.729Z,6.55
2022-10-24T23:23:16.051Z,4.57
2022-10-24T23:25:51.266Z,3.55
2022-10-24T23:28:24.254Z,3.22
2022-10-24T23:30:53.509Z,3.20
2022-10-24T23:33:27.325Z,1.70
2022-10-24T23:36:00.034Z,2.25
2022-10-24T23:38:29.060Z,3.08
2022-10-24T23:40:58.444Z,2.08
2022-10-24T23:43:27.155Z,2.80
2022-10-24T23:46:01.411Z,3.92
2022-10-24T23:48:45.028Z,1.90
2022-10-24T23:51:21.405Z,2.35
2022-10-24T23:53:52.897Z,2.10
2022-10-24T23:56:24.458Z,2.58
2022-10-24T23:58:53.325Z,3.95
